Terminal Aerodrome Forecast
Issued by NWS Greer, SC

Home | Current Version | Previous Version | Text Only | Print | Product List | Glossary On
Versions: 1 2 3 4 5 6 7 8 9 10 11 12 13 14 15 16 17 18 19 20 21 22 23 24 25 26 27 28
000
FTUS42 KGSP 241315 AAA
TAFAVL
TAF AMD
KAVL 241315Z 2413/2512 13006KT P6SM VCSH BKN006 BKN018
      TEMPO 2413/2415 SCT006 BKN018
     FM241500 16007KT P6SM BKN020 OVC035
      TEMPO 2417/2421 VRB20G30KT 3SM +TSRA BR BKN015CB
     FM242100 18010G18KT P6SM VCTS OVC050CB
     FM250000 30007KT P6SM VCSH BKN045
     FM250900 34007KT 4SM BR BKN008=

USA.gov is the U.S. government's official web portal to all federal, state and local government web resources and services.